sensor_id;sensor_type;location;lat;lon;timestamp;temperature;humidity
11647;DHT22;5880;52.342;9.662;2023-02-12T00:01:41;11.00;71.90
11647;DHT22;5880;52.342;9.662;2023-02-12T00:04:07;11.00;72.00
11647;DHT22;5880;52.342;9.662;2023-02-12T00:06:32;11.10;72.00
11647;DHT22;5880;52.342;9.662;2023-02-12T00:08:58;11.10;72.60
11647;DHT22;5880;52.342;9.662;2023-02-12T00:11:26;11.10;71.90
11647;DHT22;5880;52.342;9.662;2023-02-12T00:13:54;11.10;71.80
11647;DHT22;5880;52.342;9.662;2023-02-12T00:16:24;11.10;71.80
11647;DHT22;5880;52.342;9.662;2023-02-12T00:18:52;11.10;71.90
11647;DHT22;5880;52.342;9.662;2023-02-12T00:21:19;11.10;71.90
11647;DHT22;5880;52.342;9.662;2023-02-12T00:23:46;11.10;71.80
11647;DHT22;5880;52.342;9.662;2023-02-12T00:26:14;11.00;71.70
11647;DHT22;5880;52.342;9.662;2023-02-12T00:28:42;11.00;71.80
11647;DHT22;5880;52.342;9.662;2023-02-12T00:31:12;11.00;71.70
11647;DHT22;5880;52.342;9.662;2023-02-12T00:33:40;11.00;71.70
11647;DHT22;5880;52.342;9.662;2023-02-12T00:36:07;11.00;71.70
11647;DHT22;5880;52.342;9.662;2023-02-12T00:38:34;11.00;71.60
11647;DHT22;5880;52.342;9.662;2023-02-12T00:40:59;11.00;71.60
11647;DHT22;5880;52.342;9.662;2023-02-12T00:43:25;11.00;71.60
11647;DHT22;5880;52.342;9.662;2023-02-12T00:45:51;11.00;71.70
11647;DHT22;5880;52.342;9.662;2023-02-12T00:48:17;11.00;71.60
11647;DHT22;5880;52.342;9.662;2023-02-12T00:50:47;11.00;71.80
11647;DHT22;5880;52.342;9.662;2023-02-12T00:53:13;10.90;71.90
11647;DHT22;5880;52.342;9.662;2023-02-12T00:55:39;10.90;72.20
11647;DHT22;5880;52.342;9.662;2023-02-12T00:58:05;10.90;71.90
11647;DHT22;5880;52.342;9.662;2023-02-12T01:00:32;10.90;71.90
11647;DHT22;5880;52.342;9.662;2023-02-12T01:02:58;10.90;72.00
11647;DHT22;5880;52.342;9.662;2023-02-12T01:05:24;10.90;71.80
11647;DHT22;5880;52.342;9.662;2023-02-12T01:07:51;10.90;71.90
11647;DHT22;5880;52.342;9.662;2023-02-12T01:10:18;10.90;72.00
11647;DHT22;5880;52.342;9.662;2023-02-12T01:12:45;10.80;71.90
11647;DHT22;5880;52.342;9.662;2023-02-12T01:15:12;10.90;72.00
11647;DHT22;5880;52.342;9.662;2023-02-12T01:17:39;10.80;72.00
11647;DHT22;5880;52.342;9.662;2023-02-12T01:20:06;10.90;72.10
11647;DHT22;5880;52.342;9.662;2023-02-12T01:22:34;10.90;72.20
11647;DHT22;5880;52.342;9.662;2023-02-12T01:25:00;10.80;72.10
11647;DHT22;5880;52.342;9.662;2023-02-12T01:27:26;10.80;72.00
11647;DHT22;5880;52.342;9.662;2023-02-12T01:29:51;10.80;72.10
11647;DHT22;5880;52.342;9.662;2023-02-12T01:32:17;10.80;72.00
11647;DHT22;5880;52.342;9.662;2023-02-12T01:34:43;10.80;72.00
11647;DHT22;5880;52.342;9.662;2023-02-12T01:37:08;10.80;72.00
11647;DHT22;5880;52.342;9.662;2023-02-12T01:39:34;10.80;72.20
11647;DHT22;5880;52.342;9.662;2023-02-12T01:42:00;10.80;72.10
11647;DHT22;5880;52.342;9.662;2023-02-12T01:44:30;10.80;72.20
11647;DHT22;5880;52.342;9.662;2023-02-12T01:46:59;10.70;72.30
11647;DHT22;5880;52.342;9.662;2023-02-12T01:49:31;10.80;72.30
11647;DHT22;5880;52.342;9.662;2023-02-12T01:52:35;10.80;72.30
11647;DHT22;5880;52.342;9.662;2023-02-12T01:55:06;10.80;72.90
11647;DHT22;5880;52.342;9.662;2023-02-12T01:57:38;10.70;72.20
11647;DHT22;5880;52.342;9.662;2023-02-12T02:00:10;10.80;72.20
11647;DHT22;5880;52.342;9.662;2023-02-12T02:02:39;10.80;72.20
11647;DHT22;5880;52.342;9.662;2023-02-12T02:05:07;10.70;72.10
11647;DHT22;5880;52.342;9.662;2023-02-12T02:07:33;10.70;72.20
11647;DHT22;5880;52.342;9.662;2023-02-12T02:09:59;10.70;72.20
11647;DHT22;5880;52.342;9.662;2023-02-12T02:12:26;10.70;72.20
11647;DHT22;5880;52.342;9.662;2023-02-12T02:15:11;10.70;72.30
11647;DHT22;5880;52.342;9.662;2023-02-12T02:17:52;11.20;72.50
11647;DHT22;5880;52.342;9.662;2023-02-12T02:29:42;10.70;72.60
11647;DHT22;5880;52.342;9.662;2023-02-12T02:32:50;10.70;72.20
11647;DHT22;5880;52.342;9.662;2023-02-12T02:35:36;10.70;72.60
11647;DHT22;5880;52.342;9.662;2023-02-12T02:38:22;10.60;72.30
11647;DHT22;5880;52.342;9.662;2023-02-12T02:41:05;10.60;72.70
11647;DHT22;5880;52.342;9.662;2023-02-12T02:43:51;10.60;72.40
11647;DHT22;5880;52.342;9.662;2023-02-12T02:46:33;10.60;72.10
11647;DHT22;5880;52.342;9.662;2023-02-12T02:49:07;10.60;72.20
11647;DHT22;5880;52.342;9.662;2023-02-12T02:51:44;10.60;72.20
11647;DHT22;5880;52.342;9.662;2023-02-12T02:54:25;10.60;72.40
11647;DHT22;5880;52.342;9.662;2023-02-12T02:57:05;10.60;72.20
11647;DHT22;5880;52.342;9.662;2023-02-12T02:59:43;10.60;72.40
11647;DHT22;5880;52.342;9.662;2023-02-12T03:02:19;10.60;72.50
11647;DHT22;5880;52.342;9.662;2023-02-12T03:04:56;10.60;72.50
11647;DHT22;5880;52.342;9.662;2023-02-12T03:07:32;10.60;72.60
11647;DHT22;5880;52.342;9.662;2023-02-12T03:10:39;10.60;72.50
11647;DHT22;5880;52.342;9.662;2023-02-12T03:13:25;10.60;72.50
11647;DHT22;5880;52.342;9.662;2023-02-12T03:16:05;10.60;73.70
11647;DHT22;5880;52.342;9.662;2023-02-12T03:18:41;10.60;72.60
11647;DHT22;5880;52.342;9.662;2023-02-12T03:21:17;10.60;72.70
11647;DHT22;5880;52.342;9.662;2023-02-12T03:23:56;10.60;72.50
11647;DHT22;5880;52.342;9.662;2023-02-12T03:27:02;10.60;72.60
11647;DHT22;5880;52.342;9.662;2023-02-12T03:29:31;10.50;72.60
11647;DHT22;5880;52.342;9.662;2023-02-12T03:32:13;10.60;72.40
11647;DHT22;5880;52.342;9.662;2023-02-12T03:37:35;10.60;72.30
11647;DHT22;5880;52.342;9.662;2023-02-12T03:40:16;10.60;72.50
11647;DHT22;5880;52.342;9.662;2023-02-12T03:43:01;10.60;72.60
11647;DHT22;5880;52.342;9.662;2023-02-12T03:45:51;10.60;73.30
11647;DHT22;5880;52.342;9.662;2023-02-12T03:48:27;10.60;72.90
11647;DHT22;5880;52.342;9.662;2023-02-12T03:51:13;10.50;72.50
11647;DHT22;5880;52.342;9.662;2023-02-12T03:53:44;10.50;72.60
11647;DHT22;5880;52.342;9.662;2023-02-12T03:56:13;10.60;72.50
11647;DHT22;5880;52.342;9.662;2023-02-12T03:58:44;10.60;72.60
11647;DHT22;5880;52.342;9.662;2023-02-12T04:01:11;10.50;72.50
11647;DHT22;5880;52.342;9.662;2023-02-12T04:03:38;10.60;72.50
11647;DHT22;5880;52.342;9.662;2023-02-12T04:06:14;10.50;72.50
11647;DHT22;5880;52.342;9.662;2023-02-12T04:08:44;10.50;72.50
11647;DHT22;5880;52.342;9.662;2023-02-12T04:12:04;10.60;72.50
11647;DHT22;5880;52.342;9.662;2023-02-12T04:14:23;10.60;72.80
11647;DHT22;5880;52.342;9.662;2023-02-12T04:26:09;10.50;72.90
11647;DHT22;5880;52.342;9.662;2023-02-12T04:29:17;10.60;72.30
11647;DHT22;5880;52.342;9.662;2023-02-12T04:32:04;10.50;73.00
11647;DHT22;5880;52.342;9.662;2023-02-12T04:35:03;10.60;72.60
11647;DHT22;5880;52.342;9.662;2023-02-12T04:37:42;10.50;72.60
11647;DHT22;5880;52.342;9.662;2023-02-12T04:40:14;10.50;72.50
11647;DHT22;5880;52.342;9.662;2023-02-12T04:42:48;10.60;72.20
11647;DHT22;5880;52.342;9.662;2023-02-12T04:45:25;10.50;72.40
11647;DHT22;5880;52.342;9.662;2023-02-12T04:47:53;10.50;72.50
11647;DHT22;5880;52.342;9.662;2023-02-12T04:50:19;10.50;72.30
11647;DHT22;5880;52.342;9.662;2023-02-12T04:52:44;10.50;72.30
11647;DHT22;5880;52.342;9.662;2023-02-12T04:55:11;10.50;72.90
11647;DHT22;5880;52.342;9.662;2023-02-12T04:57:37;10.50;72.30
11647;DHT22;5880;52.342;9.662;2023-02-12T05:00:09;10.50;72.40
11647;DHT22;5880;52.342;9.662;2023-02-12T05:02:37;10.70;72.60
11647;DHT22;5880;52.342;9.662;2023-02-12T05:05:03;10.40;72.30
11647;DHT22;5880;52.342;9.662;2023-02-12T05:07:29;10.50;72.40
11647;DHT22;5880;52.342;9.662;2023-02-12T05:09:54;10.40;72.40
11647;DHT22;5880;52.342;9.662;2023-02-12T05:12:20;10.40;72.40
11647;DHT22;5880;52.342;9.662;2023-02-12T05:14:46;10.40;72.40
11647;DHT22;5880;52.342;9.662;2023-02-12T05:17:11;10.40;72.40
11647;DHT22;5880;52.342;9.662;2023-02-12T05:19:37;10.40;72.40
11647;DHT22;5880;52.342;9.662;2023-02-12T05:22:03;10.40;72.40
11647;DHT22;5880;52.342;9.662;2023-02-12T05:24:28;10.40;72.50
11647;DHT22;5880;52.342;9.662;2023-02-12T05:26:54;10.40;72.50
11647;DHT22;5880;52.342;9.662;2023-02-12T05:29:20;10.40;72.50
11647;DHT22;5880;52.342;9.662;2023-02-12T05:31:46;10.40;72.60
11647;DHT22;5880;52.342;9.662;2023-02-12T05:34:12;10.40;72.50
11647;DHT22;5880;52.342;9.662;2023-02-12T05:36:38;10.40;72.50
11647;DHT22;5880;52.342;9.662;2023-02-12T05:39:04;10.40;72.50
11647;DHT22;5880;52.342;9.662;2023-02-12T05:41:32;10.40;72.60
11647;DHT22;5880;52.342;9.662;2023-02-12T05:44:03;10.40;72.60
11647;DHT22;5880;52.342;9.662;2023-02-12T05:46:30;10.40;72.60
11647;DHT22;5880;52.342;9.662;2023-02-12T05:48:56;10.40;72.50
11647;DHT22;5880;52.342;9.662;2023-02-12T05:51:24;10.40;72.60
11647;DHT22;5880;52.342;9.662;2023-02-12T05:53:56;10.40;72.60
11647;DHT22;5880;52.342;9.662;2023-02-12T05:56:46;10.40;72.60
11647;DHT22;5880;52.342;9.662;2023-02-12T05:59:22;10.40;72.60
11647;DHT22;5880;52.342;9.662;2023-02-12T06:01:50;10.40;72.80
11647;DHT22;5880;52.342;9.662;2023-02-12T06:04:21;10.40;72.60
11647;DHT22;5880;52.342;9.662;2023-02-12T06:06:50;10.50;72.90
11647;DHT22;5880;52.342;9.662;2023-02-12T06:09:16;10.40;72.60
11647;DHT22;5880;52.342;9.662;2023-02-12T06:11:42;10.40;72.70
11647;DHT22;5880;52.342;9.662;2023-02-12T06:14:13;10.40;72.70
11647;DHT22;5880;52.342;9.662;2023-02-12T06:16:52;10.40;72.80
11647;DHT22;5880;52.342;9.662;2023-02-12T06:19:18;10.40;72.80
11647;DHT22;5880;52.342;9.662;2023-02-12T06:21:45;10.40;72.80
11647;DHT22;5880;52.342;9.662;2023-02-12T06:24:12;10.40;72.70
11647;DHT22;5880;52.342;9.662;2023-02-12T06:26:39;10.40;72.70
11647;DHT22;5880;52.342;9.662;2023-02-12T06:29:06;10.50;72.80
11647;DHT22;5880;52.342;9.662;2023-02-12T06:31:34;10.40;72.70
11647;DHT22;5880;52.342;9.662;2023-02-12T06:34:03;10.50;72.80
11647;DHT22;5880;52.342;9.662;2023-02-12T06:36:32;10.50;72.80
11647;DHT22;5880;52.342;9.662;2023-02-12T06:39:00;10.50;72.80
11647;DHT22;5880;52.342;9.662;2023-02-12T06:41:27;10.50;72.80
11647;DHT22;5880;52.342;9.662;2023-02-12T06:43:53;10.50;72.70
11647;DHT22;5880;52.342;9.662;2023-02-12T06:46:18;10.50;72.80
11647;DHT22;5880;52.342;9.662;2023-02-12T06:48:44;10.50;72.70
11647;DHT22;5880;52.342;9.662;2023-02-12T06:51:16;10.50;72.80
11647;DHT22;5880;52.342;9.662;2023-02-12T06:53:43;10.50;72.90
11647;DHT22;5880;52.342;9.662;2023-02-12T06:56:11;10.50;72.70
11647;DHT22;5880;52.342;9.662;2023-02-12T06:58:45;10.50;72.70
11647;DHT22;5880;52.342;9.662;2023-02-12T07:03:50;10.50;72.90
11647;DHT22;5880;52.342;9.662;2023-02-12T07:06:18;10.50;72.80
11647;DHT22;5880;52.342;9.662;2023-02-12T07:08:44;10.50;72.80
11647;DHT22;5880;52.342;9.662;2023-02-12T07:11:11;10.50;73.60
11647;DHT22;5880;52.342;9.662;2023-02-12T07:13:36;10.50;72.90
11647;DHT22;5880;52.342;9.662;2023-02-12T07:16:12;10.50;72.90
11647;DHT22;5880;52.342;9.662;2023-02-12T07:18:40;10.50;73.10
11647;DHT22;5880;52.342;9.662;2023-02-12T07:21:09;10.50;72.90
11647;DHT22;5880;52.342;9.662;2023-02-12T07:23:36;10.50;73.00
11647;DHT22;5880;52.342;9.662;2023-02-12T07:26:09;10.50;73.00
11647;DHT22;5880;52.342;9.662;2023-02-12T07:28:37;10.60;73.20
11647;DHT22;5880;52.342;9.662;2023-02-12T07:31:17;10.60;73.00
11647;DHT22;5880;52.342;9.662;2023-02-12T07:33:44;10.60;73.30
11647;DHT22;5880;52.342;9.662;2023-02-12T07:36:13;10.60;73.00
11647;DHT22;5880;52.342;9.662;2023-02-12T07:38:41;10.50;73.10
11647;DHT22;5880;52.342;9.662;2023-02-12T07:41:08;10.60;73.10
11647;DHT22;5880;52.342;9.662;2023-02-12T07:43:37;10.60;73.10
11647;DHT22;5880;52.342;9.662;2023-02-12T07:46:15;10.60;73.20
11647;DHT22;5880;52.342;9.662;2023-02-12T07:48:43;10.60;73.40
11647;DHT22;5880;52.342;9.662;2023-02-12T07:51:11;10.60;73.20
11647;DHT22;5880;52.342;9.662;2023-02-12T07:53:39;10.60;73.20
11647;DHT22;5880;52.342;9.662;2023-02-12T07:56:10;10.60;73.20
11647;DHT22;5880;52.342;9.662;2023-02-12T07:58:38;10.60;73.30
11647;DHT22;5880;52.342;9.662;2023-02-12T08:01:23;10.70;73.40
11647;DHT22;5880;52.342;9.662;2023-02-12T08:04:01;10.70;73.60
11647;DHT22;5880;52.342;9.662;2023-02-12T08:06:31;10.70;73.40
11647;DHT22;5880;52.342;9.662;2023-02-12T08:09:01;10.70;73.30
11647;DHT22;5880;52.342;9.662;2023-02-12T08:11:29;10.70;73.30
11647;DHT22;5880;52.342;9.662;2023-02-12T08:13:56;10.70;73.30
11647;DHT22;5880;52.342;9.662;2023-02-12T08:16:23;10.70;73.30
11647;DHT22;5880;52.342;9.662;2023-02-12T08:18:51;10.80;73.40
11647;DHT22;5880;52.342;9.662;2023-02-12T08:21:20;10.80;73.40
11647;DHT22;5880;52.342;9.662;2023-02-12T08:23:50;10.80;73.50
11647;DHT22;5880;52.342;9.662;2023-02-12T08:26:19;10.80;73.50
11647;DHT22;5880;52.342;9.662;2023-02-12T08:28:52;10.80;73.50
11647;DHT22;5880;52.342;9.662;2023-02-12T08:31:23;10.80;73.60
11647;DHT22;5880;52.342;9.662;2023-02-12T08:33:51;10.80;73.50
11647;DHT22;5880;52.342;9.662;2023-02-12T08:36:21;10.80;73.50
11647;DHT22;5880;52.342;9.662;2023-02-12T08:38:48;10.80;73.70
11647;DHT22;5880;52.342;9.662;2023-02-12T08:41:23;10.90;73.60
11647;DHT22;5880;52.342;9.662;2023-02-12T08:43:55;10.90;73.90
11647;DHT22;5880;52.342;9.662;2023-02-12T08:46:25;10.90;73.80
11647;DHT22;5880;52.342;9.662;2023-02-12T08:49:03;10.90;73.70
11647;DHT22;5880;52.342;9.662;2023-02-12T08:51:33;11.00;73.70
11647;DHT22;5880;52.342;9.662;2023-02-12T08:54:03;11.00;73.80
11647;DHT22;5880;52.342;9.662;2023-02-12T08:56:31;11.00;73.60
11647;DHT22;5880;52.342;9.662;2023-02-12T08:58:59;11.00;73.60
11647;DHT22;5880;52.342;9.662;2023-02-12T09:01:29;11.00;73.70
11647;DHT22;5880;52.342;9.662;2023-02-12T09:03:57;11.00;73.60
11647;DHT22;5880;52.342;9.662;2023-02-12T09:06:24;11.00;73.60
11647;DHT22;5880;52.342;9.662;2023-02-12T09:08:52;11.10;73.70
11647;DHT22;5880;52.342;9.662;2023-02-12T09:11:22;11.10;73.80
11647;DHT22;5880;52.342;9.662;2023-02-12T09:13:58;11.10;73.90
11647;DHT22;5880;52.342;9.662;2023-02-12T09:16:29;11.10;73.90
11647;DHT22;5880;52.342;9.662;2023-02-12T09:18:57;11.20;73.80
11647;DHT22;5880;52.342;9.662;2023-02-12T09:21:22;11.20;73.70
11647;DHT22;5880;52.342;9.662;2023-02-12T09:23:49;11.30;73.70
11647;DHT22;5880;52.342;9.662;2023-02-12T09:26:18;11.30;73.70
11647;DHT22;5880;52.342;9.662;2023-02-12T09:28:47;11.30;73.70
11647;DHT22;5880;52.342;9.662;2023-02-12T09:31:17;11.30;73.70
11647;DHT22;5880;52.342;9.662;2023-02-12T09:33:51;11.30;73.70
11647;DHT22;5880;52.342;9.662;2023-02-12T09:36:18;11.40;73.70
11647;DHT22;5880;52.342;9.662;2023-02-12T09:38:45;11.40;73.60
11647;DHT22;5880;52.342;9.662;2023-02-12T09:41:49;11.40;73.70
11647;DHT22;5880;52.342;9.662;2023-02-12T09:44:43;11.50;74.00
11647;DHT22;5880;52.342;9.662;2023-02-12T09:47:29;11.50;73.70
11647;DHT22;5880;52.342;9.662;2023-02-12T09:50:33;11.60;73.70
11647;DHT22;5880;52.342;9.662;2023-02-12T09:53:12;11.60;73.70
11647;DHT22;5880;52.342;9.662;2023-02-12T09:55:41;11.60;73.40
11647;DHT22;5880;52.342;9.662;2023-02-12T10:01:14;11.70;73.50
11647;DHT22;5880;52.342;9.662;2023-02-12T10:03:42;11.70;73.30
11647;DHT22;5880;52.342;9.662;2023-02-12T10:06:21;11.70;73.30
11647;DHT22;5880;52.342;9.662;2023-02-12T10:12:35;11.80;73.10
11647;DHT22;5880;52.342;9.662;2023-02-12T10:15:34;11.80;73.20
11647;DHT22;5880;52.342;9.662;2023-02-12T10:21:43;11.80;72.90
11647;DHT22;5880;52.342;9.662;2023-02-12T10:27:32;11.80;72.60
11647;DHT22;5880;52.342;9.662;2023-02-12T10:30:15;11.80;72.60
11647;DHT22;5880;52.342;9.662;2023-02-12T10:32:54;11.80;72.70
11647;DHT22;5880;52.342;9.662;2023-02-12T10:35:27;11.80;72.80
11647;DHT22;5880;52.342;9.662;2023-02-12T10:38:05;11.80;72.90
11647;DHT22;5880;52.342;9.662;2023-02-12T10:40:43;11.80;73.00
11647;DHT22;5880;52.342;9.662;2023-02-12T10:43:11;11.90;73.20
11647;DHT22;5880;52.342;9.662;2023-02-12T10:45:39;11.90;73.40
11647;DHT22;5880;52.342;9.662;2023-02-12T10:48:14;12.00;73.70
11647;DHT22;5880;52.342;9.662;2023-02-12T10:53:21;12.10;74.30
11647;DHT22;5880;52.342;9.662;2023-02-12T11:01:24;12.20;72.40
11647;DHT22;5880;52.342;9.662;2023-02-12T11:03:54;12.30;72.40
11647;DHT22;5880;52.342;9.662;2023-02-12T11:06:29;12.30;72.30
11647;DHT22;5880;52.342;9.662;2023-02-12T11:08:58;12.20;72.10
11647;DHT22;5880;52.342;9.662;2023-02-12T11:11:29;12.20;72.20
11647;DHT22;5880;52.342;9.662;2023-02-12T11:14:06;12.20;72.30
11647;DHT22;5880;52.342;9.662;2023-02-12T11:16:57;12.30;72.40
11647;DHT22;5880;52.342;9.662;2023-02-12T11:19:28;12.30;72.10
11647;DHT22;5880;52.342;9.662;2023-02-12T11:22:12;12.30;72.30
11647;DHT22;5880;52.342;9.662;2023-02-12T11:24:43;12.30;72.20
11647;DHT22;5880;52.342;9.662;2023-02-12T11:27:22;12.30;72.20
11647;DHT22;5880;52.342;9.662;2023-02-12T11:32:35;12.30;72.00
11647;DHT22;5880;52.342;9.662;2023-02-12T11:35:14;12.30;72.10
11647;DHT22;5880;52.342;9.662;2023-02-12T11:37:49;12.30;72.10
11647;DHT22;5880;52.342;9.662;2023-02-12T11:40:31;12.30;72.10
11647;DHT22;5880;52.342;9.662;2023-02-12T11:43:01;12.40;72.00
11647;DHT22;5880;52.342;9.662;2023-02-12T11:45:51;12.40;72.00
11647;DHT22;5880;52.342;9.662;2023-02-12T11:48:30;12.40;71.90
11647;DHT22;5880;52.342;9.662;2023-02-12T11:51:02;12.40;72.60
11647;DHT22;5880;52.342;9.662;2023-02-12T11:53:32;12.40;71.80
11647;DHT22;5880;52.342;9.662;2023-02-12T11:56:09;12.50;72.00
11647;DHT22;5880;52.342;9.662;2023-02-12T11:58:37;12.40;71.90
11647;DHT22;5880;52.342;9.662;2023-02-12T12:03:53;12.40;72.60
11647;DHT22;5880;52.342;9.662;2023-02-12T12:09:19;12.40;71.50
11647;DHT22;5880;52.342;9.662;2023-02-12T12:12:01;12.40;72.30
11647;DHT22;5880;52.342;9.662;2023-02-12T12:14:40;12.40;71.40
11647;DHT22;5880;52.342;9.662;2023-02-12T12:17:48;12.40;71.40
11647;DHT22;5880;52.342;9.662;2023-02-12T12:20:52;12.30;71.40
11647;DHT22;5880;52.342;9.662;2023-02-12T12:26:29;12.30;71.50
11647;DHT22;5880;52.342;9.662;2023-02-12T12:29:19;12.30;71.50
11647;DHT22;5880;52.342;9.662;2023-02-12T12:31:55;12.30;71.70
11647;DHT22;5880;52.342;9.662;2023-02-12T12:34:26;12.20;71.60
11647;DHT22;5880;52.342;9.662;2023-02-12T12:43:12;12.20;71.60
11647;DHT22;5880;52.342;9.662;2023-02-12T12:48:40;12.20;71.60
11647;DHT22;5880;52.342;9.662;2023-02-12T12:51:29;12.20;71.60
11647;DHT22;5880;52.342;9.662;2023-02-12T12:54:26;12.30;71.70
11647;DHT22;5880;52.342;9.662;2023-02-12T13:05:55;12.30;71.70
11647;DHT22;5880;52.342;9.662;2023-02-12T13:08:40;12.30;71.80
11647;DHT22;5880;52.342;9.662;2023-02-12T13:11:44;12.30;71.70
11647;DHT22;5880;52.342;9.662;2023-02-12T13:14:41;12.30;71.70
11647;DHT22;5880;52.342;9.662;2023-02-12T13:17:22;12.30;71.60
11647;DHT22;5880;52.342;9.662;2023-02-12T13:22:59;12.30;71.50
11647;DHT22;5880;52.342;9.662;2023-02-12T13:28:41;12.30;71.40
11647;DHT22;5880;52.342;9.662;2023-02-12T13:31:15;12.20;71.30
11647;DHT22;5880;52.342;9.662;2023-02-12T13:33:50;12.30;71.30
11647;DHT22;5880;52.342;9.662;2023-02-12T13:36:19;12.20;71.30
11647;DHT22;5880;52.342;9.662;2023-02-12T13:39:00;12.20;71.30
11647;DHT22;5880;52.342;9.662;2023-02-12T13:41:33;12.20;71.40
11647;DHT22;5880;52.342;9.662;2023-02-12T13:44:18;12.20;71.40
11647;DHT22;5880;52.342;9.662;2023-02-12T13:52:53;12.10;71.60
11647;DHT22;5880;52.342;9.662;2023-02-12T13:55:40;12.10;71.60
11647;DHT22;5880;52.342;9.662;2023-02-12T14:01:12;12.20;71.60
11647;DHT22;5880;52.342;9.662;2023-02-12T14:04:21;12.20;71.50
11647;DHT22;5880;52.342;9.662;2023-02-12T14:07:04;12.10;71.50
11647;DHT22;5880;52.342;9.662;2023-02-12T14:14:53;12.10;71.60
11647;DHT22;5880;52.342;9.662;2023-02-12T14:24:57;12.10;71.50
11647;DHT22;5880;52.342;9.662;2023-02-12T14:27:28;12.10;71.50
11647;DHT22;5880;52.342;9.662;2023-02-12T14:35:39;12.20;71.10
11647;DHT22;5880;52.342;9.662;2023-02-12T14:40:51;12.20;71.00
11647;DHT22;5880;52.342;9.662;2023-02-12T14:56:59;12.00;70.70
11647;DHT22;5880;52.342;9.662;2023-02-12T14:59:34;12.00;70.70
11647;DHT22;5880;52.342;9.662;2023-02-12T15:02:05;12.00;70.70
11647;DHT22;5880;52.342;9.662;2023-02-12T15:04:40;12.00;70.70
11647;DHT22;5880;52.342;9.662;2023-02-12T15:07:13;11.90;70.70
11647;DHT22;5880;52.342;9.662;2023-02-12T15:10:30;12.00;70.70
11647;DHT22;5880;52.342;9.662;2023-02-12T15:16:01;11.90;70.70
11647;DHT22;5880;52.342;9.662;2023-02-12T15:21:23;11.80;70.70
11647;DHT22;5880;52.342;9.662;2023-02-12T15:24:04;11.80;70.60
11647;DHT22;5880;52.342;9.662;2023-02-12T15:26:41;11.80;70.70
11647;DHT22;5880;52.342;9.662;2023-02-12T15:29:23;11.80;70.80
11647;DHT22;5880;52.342;9.662;2023-02-12T15:31:57;11.70;70.80
11647;DHT22;5880;52.342;9.662;2023-02-12T15:34:30;11.70;70.80
11647;DHT22;5880;52.342;9.662;2023-02-12T15:36:59;11.70;70.80
11647;DHT22;5880;52.342;9.662;2023-02-12T15:39:38;11.70;70.80
11647;DHT22;5880;52.342;9.662;2023-02-12T15:42:34;11.70;70.90
11647;DHT22;5880;52.342;9.662;2023-02-12T15:45:20;11.70;70.80
11647;DHT22;5880;52.342;9.662;2023-02-12T15:50:24;11.60;70.60
11647;DHT22;5880;52.342;9.662;2023-02-12T15:52:51;11.70;70.70
11647;DHT22;5880;52.342;9.662;2023-02-12T15:55:22;11.60;70.60
11647;DHT22;5880;52.342;9.662;2023-02-12T15:57:52;11.60;70.50
11647;DHT22;5880;52.342;9.662;2023-02-12T16:03:15;11.60;70.50
11647;DHT22;5880;52.342;9.662;2023-02-12T16:05:43;11.60;70.60
11647;DHT22;5880;52.342;9.662;2023-02-12T16:08:14;11.60;70.60
11647;DHT22;5880;52.342;9.662;2023-02-12T16:10:44;11.60;70.70
11647;DHT22;5880;52.342;9.662;2023-02-12T16:13:18;11.60;70.70
11647;DHT22;5880;52.342;9.662;2023-02-12T16:18:40;11.60;70.60
11647;DHT22;5880;52.342;9.662;2023-02-12T16:21:16;11.60;70.60
11647;DHT22;5880;52.342;9.662;2023-02-12T16:23:47;11.60;70.60
11647;DHT22;5880;52.342;9.662;2023-02-12T16:26:19;11.60;70.60
11647;DHT22;5880;52.342;9.662;2023-02-12T16:28:49;11.60;70.60
11647;DHT22;5880;52.342;9.662;2023-02-12T16:31:19;11.60;70.60
11647;DHT22;5880;52.342;9.662;2023-02-12T16:33:53;11.50;70.60
11647;DHT22;5880;52.342;9.662;2023-02-12T16:39:28;11.50;70.60
11647;DHT22;5880;52.342;9.662;2023-02-12T16:41:59;11.60;70.50
11647;DHT22;5880;52.342;9.662;2023-02-12T16:44:27;11.50;70.50
11647;DHT22;5880;52.342;9.662;2023-02-12T16:46:57;11.50;70.50
11647;DHT22;5880;52.342;9.662;2023-02-12T16:49:25;11.50;70.50
11647;DHT22;5880;52.342;9.662;2023-02-12T16:51:52;11.50;70.50
11647;DHT22;5880;52.342;9.662;2023-02-12T16:54:30;11.50;70.50
11647;DHT22;5880;52.342;9.662;2023-02-12T16:57:00;11.50;70.40
11647;DHT22;5880;52.342;9.662;2023-02-12T16:59:27;11.60;70.50
11647;DHT22;5880;52.342;9.662;2023-02-12T17:01:57;11.50;70.40
11647;DHT22;5880;52.342;9.662;2023-02-12T17:04:28;11.50;70.40
11647;DHT22;5880;52.342;9.662;2023-02-12T17:06:55;11.60;70.50
11647;DHT22;5880;52.342;9.662;2023-02-12T17:09:22;11.50;70.50
11647;DHT22;5880;52.342;9.662;2023-02-12T17:11:47;11.50;70.40
11647;DHT22;5880;52.342;9.662;2023-02-12T17:14:15;11.50;70.40
11647;DHT22;5880;52.342;9.662;2023-02-12T17:16:43;11.50;70.40
11647;DHT22;5880;52.342;9.662;2023-02-12T17:19:10;11.50;70.40
11647;DHT22;5880;52.342;9.662;2023-02-12T17:21:39;11.50;70.40
11647;DHT22;5880;52.342;9.662;2023-02-12T17:24:21;11.50;70.40
11647;DHT22;5880;52.342;9.662;2023-02-12T17:26:49;11.50;70.30
11647;DHT22;5880;52.342;9.662;2023-02-12T17:29:20;11.50;70.40
11647;DHT22;5880;52.342;9.662;2023-02-12T17:31:47;11.50;70.40
11647;DHT22;5880;52.342;9.662;2023-02-12T17:34:14;11.50;70.40
11647;DHT22;5880;52.342;9.662;2023-02-12T17:36:40;11.50;70.40
11647;DHT22;5880;52.342;9.662;2023-02-12T17:39:07;11.40;70.30
11647;DHT22;5880;52.342;9.662;2023-02-12T17:41:34;11.40;70.40
11647;DHT22;5880;52.342;9.662;2023-02-12T17:44:00;11.50;70.40
11647;DHT22;5880;52.342;9.662;2023-02-12T17:46:27;11.50;70.40
11647;DHT22;5880;52.342;9.662;2023-02-12T17:48:54;11.50;70.50
11647;DHT22;5880;52.342;9.662;2023-02-12T17:51:20;11.40;70.40
11647;DHT22;5880;52.342;9.662;2023-02-12T17:53:46;11.40;70.40
11647;DHT22;5880;52.342;9.662;2023-02-12T17:56:14;11.40;70.40
11647;DHT22;5880;52.342;9.662;2023-02-12T17:58:42;11.40;70.40
11647;DHT22;5880;52.342;9.662;2023-02-12T18:01:10;11.40;70.50
11647;DHT22;5880;52.342;9.662;2023-02-12T18:03:38;11.40;71.20
11647;DHT22;5880;52.342;9.662;2023-02-12T18:06:04;11.40;70.50
11647;DHT22;5880;52.342;9.662;2023-02-12T18:08:31;11.40;70.50
11647;DHT22;5880;52.342;9.662;2023-02-12T18:10:57;11.40;70.50
11647;DHT22;5880;52.342;9.662;2023-02-12T18:13:24;11.40;70.60
11647;DHT22;5880;52.342;9.662;2023-02-12T18:15:50;11.40;70.60
11647;DHT22;5880;52.342;9.662;2023-02-12T18:18:16;11.40;70.70
11647;DHT22;5880;52.342;9.662;2023-02-12T18:20:43;11.40;70.70
11647;DHT22;5880;52.342;9.662;2023-02-12T18:23:09;11.40;70.60
11647;DHT22;5880;52.342;9.662;2023-02-12T18:25:40;11.40;70.60
11647;DHT22;5880;52.342;9.662;2023-02-12T18:28:07;11.40;70.70
11647;DHT22;5880;52.342;9.662;2023-02-12T18:30:33;11.40;71.30
11647;DHT22;5880;52.342;9.662;2023-02-12T18:33:01;11.40;70.60
11647;DHT22;5880;52.342;9.662;2023-02-12T18:35:27;11.40;70.60
11647;DHT22;5880;52.342;9.662;2023-02-12T18:37:52;11.40;70.60
11647;DHT22;5880;52.342;9.662;2023-02-12T18:40:18;11.40;70.60
11647;DHT22;5880;52.342;9.662;2023-02-12T18:42:44;11.40;70.60